createdAt,value
2023-03-15T00:00:42.401Z,75.40
2023-03-15T00:02:46.784Z,75.30
2023-03-15T00:04:52.258Z,75.40
2023-03-15T00:06:56.634Z,75.50
2023-03-15T00:09:02.235Z,75.50
2023-03-15T00:11:07.044Z,75.40
2023-03-15T00:13:11.829Z,75.50
2023-03-15T00:15:16.372Z,75.50
2023-03-15T00:17:22.769Z,75.50
2023-03-15T00:19:27.236Z,75.50
2023-03-15T00:21:31.541Z,75.50
2023-03-15T00:23:35.696Z,75.60
2023-03-15T00:25:41.424Z,75.50
2023-03-15T00:27:45.546Z,76.30
2023-03-15T00:29:50.394Z,75.60
2023-03-15T00:31:54.899Z,75.70
2023-03-15T00:33:59.469Z,75.70
2023-03-15T00:36:07.871Z,75.70
2023-03-15T00:38:13.627Z,75.80
2023-03-15T00:40:19.577Z,75.80
2023-03-15T00:42:27.565Z,75.70
2023-03-15T00:44:31.996Z,75.80
2023-03-15T00:46:36.185Z,75.70
2023-03-15T00:48:40.540Z,75.80
2023-03-15T00:50:45.604Z,75.90
2023-03-15T00:52:49.767Z,75.70
2023-03-15T00:54:54.032Z,75.80
2023-03-15T00:56:58.776Z,75.80
2023-03-15T00:59:04.377Z,75.80
2023-03-15T01:01:09.354Z,75.80
2023-03-15T01:03:15.908Z,75.90
2023-03-15T01:05:20.173Z,75.90
2023-03-15T01:07:24.247Z,75.90
2023-03-15T01:09:28.581Z,75.90
2023-03-15T01:11:32.829Z,75.90
2023-03-15T01:13:37.203Z,76.00
2023-03-15T01:15:47.403Z,75.90
2023-03-15T01:17:51.500Z,76.10
2023-03-15T01:19:55.618Z,75.90
2023-03-15T01:21:59.753Z,75.90
2023-03-15T01:24:04.284Z,75.90
2023-03-15T01:26:09.857Z,75.90
2023-03-15T01:28:14.438Z,76.10
2023-03-15T01:30:19.062Z,75.90
2023-03-15T01:32:24.722Z,76.60
2023-03-15T01:34:28.975Z,76.00
2023-03-15T01:36:33.206Z,75.90
2023-03-15T01:38:37.262Z,75.90
2023-03-15T01:40:45.145Z,75.90
2023-03-15T01:42:55.487Z,76.00
2023-03-15T01:45:01.060Z,76.00
2023-03-15T01:47:05.967Z,76.00
2023-03-15T01:49:16.063Z,75.90
2023-03-15T01:51:24.531Z,76.00
2023-03-15T01:53:28.900Z,76.00
2023-03-15T01:55:33.526Z,76.00
2023-03-15T01:57:46.185Z,76.00
2023-03-15T01:59:52.625Z,76.00
2023-03-15T02:01:56.575Z,76.00
2023-03-15T02:04:03.943Z,76.00
2023-03-15T02:06:18.101Z,76.10
2023-03-15T02:08:29.817Z,76.10
2023-03-15T02:10:36.585Z,76.10
2023-03-15T02:12:45.386Z,76.10
2023-03-15T02:14:49.284Z,76.00
2023-03-15T02:16:54.421Z,76.00
2023-03-15T02:18:58.487Z,76.10
2023-03-15T02:21:09.611Z,76.10
2023-03-15T02:23:15.805Z,76.70
2023-03-15T02:25:23.519Z,76.10
2023-03-15T02:27:30.505Z,76.10
2023-03-15T02:29:35.443Z,76.10
2023-03-15T02:31:39.307Z,76.00
2023-03-15T02:33:44.935Z,76.10
2023-03-15T02:35:48.802Z,76.00
2023-03-15T02:37:53.633Z,76.10
2023-03-15T02:39:57.438Z,76.10
2023-03-15T02:42:01.828Z,76.00
2023-03-15T02:44:09.514Z,76.10
2023-03-15T02:46:13.393Z,76.10
2023-03-15T02:48:17.336Z,76.10
2023-03-15T02:50:21.291Z,76.10
2023-03-15T02:52:26.199Z,76.10
2023-03-15T02:54:30.020Z,76.00
2023-03-15T02:56:34.054Z,76.10
2023-03-15T02:58:38.856Z,76.00
2023-03-15T03:00:44.053Z,76.00
2023-03-15T03:02:49.103Z,76.00
2023-03-15T03:04:53.593Z,76.00
2023-03-15T03:06:57.386Z,76.10
2023-03-15T03:09:07.933Z,76.00
2023-03-15T03:11:11.899Z,76.00
2023-03-15T03:13:15.779Z,76.00
2023-03-15T03:15:19.643Z,76.00
2023-03-15T03:17:24.886Z,76.00
2023-03-15T03:19:28.777Z,76.10
2023-03-15T03:21:33.321Z,76.00
2023-03-15T03:23:37.439Z,76.10
2023-03-15T03:25:41.225Z,76.00
2023-03-15T03:27:45.254Z,76.00
2023-03-15T03:29:50.621Z,76.00
2023-03-15T03:31:54.470Z,76.00
2023-03-15T03:34:00.908Z,76.00
2023-03-15T03:36:07.758Z,75.90
2023-03-15T03:38:12.820Z,76.00
2023-03-15T03:40:19.896Z,76.00
2023-03-15T03:42:23.948Z,75.90
2023-03-15T03:44:27.981Z,75.90
2023-03-15T03:46:32.067Z,75.90
2023-03-15T03:48:36.493Z,76.00
2023-03-15T03:50:41.676Z,75.90
2023-03-15T03:52:45.468Z,75.90
2023-03-15T03:54:56.324Z,75.90
2023-03-15T03:57:00.218Z,75.90
2023-03-15T03:59:08.364Z,75.90
2023-03-15T04:01:27.005Z,75.90
2023-03-15T04:03:31.984Z,75.90
2023-03-15T04:05:44.207Z,75.90
2023-03-15T04:07:53.021Z,75.90
2023-03-15T04:09:56.916Z,75.90
2023-03-15T04:12:00.762Z,75.90
2023-03-15T04:14:04.581Z,75.90
2023-03-15T04:16:09.337Z,75.90
2023-03-15T04:18:26.682Z,76.00
2023-03-15T04:20:34.497Z,76.00
2023-03-15T04:22:40.619Z,76.00
2023-03-15T04:24:56.536Z,76.00
2023-03-15T04:27:14.422Z,76.00
2023-03-15T04:29:30.473Z,76.00
2023-03-15T04:31:48.066Z,76.00
2023-03-15T04:34:00.102Z,76.10
2023-03-15T04:36:30.674Z,76.00
2023-03-15T04:39:04.209Z,76.10
2023-03-15T04:41:21.230Z,76.20
2023-03-15T04:43:42.330Z,76.10
2023-03-15T04:46:03.002Z,76.10
2023-03-15T04:48:31.033Z,76.00
2023-03-15T04:50:46.240Z,76.10
2023-03-15T04:53:02.662Z,76.10
2023-03-15T04:55:24.574Z,76.10
2023-03-15T04:57:43.302Z,76.10
2023-03-15T05:00:12.078Z,76.70
2023-03-15T05:02:36.024Z,76.10
2023-03-15T05:04:51.517Z,76.10
2023-03-15T05:07:03.648Z,76.10
2023-03-15T05:09:26.053Z,76.00
2023-03-15T05:11:49.668Z,76.00
2023-03-15T05:14:28.741Z,76.00
2023-03-15T05:16:48.228Z,76.00
2023-03-15T05:19:12.299Z,75.90
2023-03-15T05:21:24.040Z,76.00
2023-03-15T05:23:43.318Z,75.90
2023-03-15T05:26:03.719Z,76.00
2023-03-15T05:28:36.700Z,76.00
2023-03-15T05:31:02.527Z,76.00
2023-03-15T05:33:40.515Z,76.00
2023-03-15T05:36:14.325Z,76.00
2023-03-15T05:38:36.873Z,75.90
2023-03-15T05:40:51.622Z,75.90
2023-03-15T05:43:16.412Z,75.90
2023-03-15T05:45:40.092Z,75.90
2023-03-15T05:48:09.711Z,75.90
2023-03-15T05:50:33.773Z,75.90
2023-03-15T05:52:57.005Z,76.00
2023-03-15T05:55:22.891Z,76.00
2023-03-15T05:57:34.775Z,75.90
2023-03-15T05:59:57.401Z,75.90
2023-03-15T06:02:21.389Z,76.00
2023-03-15T06:04:48.050Z,76.00
2023-03-15T06:06:55.358Z,76.00
2023-03-15T06:08:59.607Z,75.90
2023-03-15T06:11:03.483Z,76.00
2023-03-15T06:13:08.090Z,75.90
2023-03-15T06:15:12.651Z,76.00
2023-03-15T06:17:16.696Z,76.00
2023-03-15T06:19:23.497Z,76.00
2023-03-15T06:21:30.187Z,76.10
2023-03-15T06:23:34.035Z,76.00
2023-03-15T06:25:37.881Z,76.10
2023-03-15T06:27:41.826Z,76.10
2023-03-15T06:29:46.268Z,76.00
2023-03-15T06:31:50.534Z,76.00
2023-03-15T06:33:55.306Z,76.00
2023-03-15T06:36:00.594Z,76.00
2023-03-15T06:38:05.940Z,76.00
2023-03-15T06:40:11.959Z,76.00
2023-03-15T06:42:16.439Z,76.10
2023-03-15T06:44:21.130Z,76.00
2023-03-15T06:46:30.234Z,76.00
2023-03-15T06:48:34.511Z,76.00
2023-03-15T06:50:46.995Z,76.00
2023-03-15T06:52:52.837Z,76.00
2023-03-15T06:54:56.966Z,76.00
2023-03-15T06:57:00.968Z,76.00
2023-03-15T06:59:04.854Z,76.00
2023-03-15T07:01:08.734Z,76.00
2023-03-15T07:03:12.546Z,76.00
2023-03-15T07:05:16.589Z,76.00
2023-03-15T07:07:20.357Z,76.00
2023-03-15T07:09:25.695Z,76.10
2023-03-15T07:11:29.552Z,76.10
2023-03-15T07:13:33.409Z,76.00
2023-03-15T07:15:37.774Z,76.00
2023-03-15T07:17:42.022Z,76.00
2023-03-15T07:19:55.838Z,76.10
2023-03-15T07:22:00.533Z,76.00
2023-03-15T07:24:04.717Z,76.00
2023-03-15T07:26:09.949Z,76.00
2023-03-15T07:28:14.126Z,76.00
2023-03-15T07:30:18.775Z,76.10
2023-03-15T07:32:22.653Z,76.10
2023-03-15T07:34:26.676Z,76.10
2023-03-15T07:36:32.173Z,76.10
2023-03-15T07:38:36.360Z,76.10
2023-03-15T07:40:40.236Z,76.00
2023-03-15T07:42:45.854Z,76.10
2023-03-15T07:44:50.854Z,76.10
2023-03-15T07:46:55.979Z,75.90
2023-03-15T07:48:59.847Z,75.80
2023-03-15T07:51:03.675Z,75.80
2023-03-15T07:53:07.635Z,75.90
2023-03-15T07:55:11.719Z,76.00
2023-03-15T07:57:15.499Z,76.10
2023-03-15T07:59:20.652Z,73.40
2023-03-15T08:01:24.494Z,75.50
2023-03-15T08:03:29.223Z,75.70
2023-03-15T08:05:33.099Z,75.80
2023-03-15T08:07:37.212Z,75.80
2023-03-15T08:09:41.347Z,76.00
2023-03-15T08:11:45.774Z,76.20
2023-03-15T08:13:49.675Z,76.30
2023-03-15T08:15:54.842Z,76.40
2023-03-15T08:17:59.642Z,76.50
2023-03-15T08:20:04.315Z,76.60
2023-03-15T08:22:10.801Z,76.60
2023-03-15T08:24:15.300Z,76.60
2023-03-15T08:26:19.168Z,76.50
2023-03-15T08:28:23.026Z,76.10
2023-03-15T08:30:28.680Z,76.30
2023-03-15T08:32:35.402Z,76.10
2023-03-15T08:34:41.520Z,76.20
2023-03-15T08:38:46.753Z,75.40
2023-03-15T08:40:50.583Z,75.80
2023-03-15T08:42:54.571Z,75.80
2023-03-15T08:44:59.545Z,75.80
2023-03-15T08:47:05.104Z,76.00
2023-03-15T08:49:10.264Z,75.50
2023-03-15T08:51:14.708Z,75.80
2023-03-15T08:53:18.701Z,75.80
2023-03-15T08:55:22.549Z,75.70
2023-03-15T08:57:26.772Z,75.30
2023-03-15T08:59:32.800Z,75.40
2023-03-15T09:01:36.653Z,75.50
2023-03-15T09:03:42.346Z,75.20
2023-03-15T09:05:47.628Z,75.60
2023-03-15T09:07:52.970Z,75.50
2023-03-15T09:19:22.756Z,75.60
2023-03-15T09:21:28.600Z,75.40
2023-03-15T09:23:32.442Z,75.40
2023-03-15T09:25:36.931Z,75.50
2023-03-15T09:27:40.766Z,75.30
2023-03-15T09:29:44.916Z,75.20
2023-03-15T09:31:48.742Z,75.30
2023-03-15T09:33:52.569Z,75.30
2023-03-15T09:35:56.442Z,75.20
2023-03-15T09:38:03.707Z,75.20
2023-03-15T09:40:13.126Z,75.20
2023-03-15T09:42:19.915Z,75.20
2023-03-15T09:44:36.611Z,75.10
2023-03-15T09:46:42.563Z,75.20
2023-03-15T09:48:51.453Z,75.20
2023-03-15T09:50:57.100Z,75.20
2023-03-15T09:53:04.174Z,75.20
2023-03-15T09:55:12.766Z,75.30
2023-03-15T09:57:19.130Z,75.20
2023-03-15T09:59:23.544Z,75.20
2023-03-15T10:01:31.201Z,75.20
2023-03-15T10:03:39.672Z,74.90
2023-03-15T10:05:45.704Z,75.00
2023-03-15T10:07:49.531Z,54.50
2023-03-15T10:09:58.359Z,68.10
2023-03-15T10:12:05.186Z,72.00
2023-03-15T10:14:19.273Z,72.60
2023-03-15T10:16:30.500Z,73.20
2023-03-15T10:18:43.952Z,73.30
2023-03-15T10:20:51.892Z,73.40
2023-03-15T10:22:58.057Z,73.40
2023-03-15T10:25:05.222Z,73.60
2023-03-15T10:27:16.967Z,73.60
2023-03-15T10:29:22.472Z,73.70
2023-03-15T10:31:36.931Z,73.60
2023-03-15T10:33:45.248Z,73.60
2023-03-15T10:35:51.024Z,73.70
2023-03-15T10:37:55.357Z,73.80
2023-03-15T10:43:00.236Z,58.80
2023-03-15T10:45:15.571Z,67.50
2023-03-15T10:47:24.500Z,70.30
2023-03-15T10:49:35.767Z,70.40
2023-03-15T10:51:43.256Z,70.70
2023-03-15T10:53:55.238Z,70.70
2023-03-15T10:56:02.149Z,70.90
2023-03-15T10:58:20.664Z,71.30
2023-03-15T11:00:29.927Z,71.40
2023-03-15T11:02:33.899Z,71.50
2023-03-15T11:04:41.585Z,71.70
2023-03-15T11:06:48.260Z,71.80
2023-03-15T11:08:52.100Z,71.90
2023-03-15T11:10:57.563Z,71.80
2023-03-15T11:13:13.793Z,71.90
2023-03-15T11:15:17.649Z,71.90
2023-03-15T11:17:22.974Z,70.40
2023-03-15T11:19:28.764Z,71.60
2023-03-15T11:21:34.459Z,71.90
2023-03-15T11:23:39.485Z,72.50
2023-03-15T11:25:43.487Z,72.70
2023-03-15T11:27:51.863Z,72.70
2023-03-15T11:30:04.297Z,73.00
2023-03-15T11:32:14.828Z,73.20
2023-03-15T11:34:26.589Z,73.60
2023-03-15T11:36:33.747Z,73.80
2023-03-15T11:38:43.799Z,74.10
2023-03-15T11:40:49.935Z,74.30
2023-03-15T11:42:57.108Z,74.50
2023-03-15T11:45:06.537Z,74.60
2023-03-15T11:47:15.122Z,74.80
2023-03-15T11:49:23.853Z,74.70
2023-03-15T11:51:27.708Z,74.70
2023-03-15T11:53:36.147Z,74.70
2023-03-15T11:55:40.050Z,74.70
2023-03-15T11:58:32.922Z,74.90
2023-03-15T12:00:52.963Z,75.00
2023-03-15T12:02:58.373Z,74.80
2023-03-15T12:05:12.557Z,74.90
2023-03-15T12:07:46.873Z,75.00
2023-03-15T12:09:52.414Z,75.20
2023-03-15T12:11:58.579Z,75.30
2023-03-15T12:14:06.730Z,75.50
2023-03-15T12:16:14.411Z,75.30
2023-03-15T12:18:23.784Z,75.40
2023-03-15T12:20:34.165Z,76.20
2023-03-15T12:22:37.974Z,75.20
2023-03-15T12:24:41.832Z,75.70
2023-03-15T12:26:46.225Z,75.60
2023-03-15T12:28:52.759Z,75.60
2023-03-15T12:30:59.155Z,75.70
2023-03-15T12:33:04.573Z,74.90
2023-03-15T12:35:09.879Z,75.40
2023-03-15T12:37:22.187Z,75.30
2023-03-15T12:40:02.516Z,75.40
2023-03-15T12:42:06.525Z,75.50
2023-03-15T12:44:27.876Z,75.50
2023-03-15T12:46:57.031Z,75.60
2023-03-15T12:49:12.281Z,75.50
2023-03-15T12:51:40.441Z,75.60
2023-03-15T12:53:49.258Z,75.60
2023-03-15T12:56:06.211Z,75.60
2023-03-15T12:58:12.744Z,75.70
2023-03-15T13:00:18.638Z,75.60
2023-03-15T13:02:41.653Z,75.60
2023-03-15T13:04:49.692Z,75.70
2023-03-15T13:07:14.966Z,75.70
2023-03-15T13:09:31.479Z,75.60
2023-03-15T13:11:38.594Z,75.70
2023-03-15T13:13:56.622Z,75.60
2023-03-15T13:16:15.417Z,75.60
2023-03-15T13:18:22.083Z,75.60
2023-03-15T13:20:46.644Z,75.60
2023-03-15T13:22:56.484Z,76.30
2023-03-15T13:25:05.748Z,75.60
2023-03-15T13:27:15.012Z,75.70
2023-03-15T13:29:21.108Z,75.80
2023-03-15T13:31:25.903Z,75.70
2023-03-15T13:33:31.338Z,75.70
2023-03-15T13:35:35.303Z,75.80
2023-03-15T13:37:44.790Z,75.80
2023-03-15T13:39:57.329Z,75.80
2023-03-15T13:42:02.242Z,75.90
2023-03-15T13:44:18.380Z,75.90
2023-03-15T13:46:24.821Z,75.90
2023-03-15T13:48:29.945Z,75.90
2023-03-15T13:50:33.789Z,75.90
2023-03-15T13:52:37.994Z,75.90
2023-03-15T13:54:41.885Z,75.80
2023-03-15T13:56:56.594Z,75.80
2023-03-15T13:59:02.454Z,75.80
2023-03-15T14:01:09.342Z,75.90
2023-03-15T14:03:15.531Z,75.40
2023-03-15T14:05:27.043Z,75.90
2023-03-15T14:07:35.578Z,75.10
2023-03-15T14:09:39.933Z,75.70
2023-03-15T14:11:44.720Z,76.40
2023-03-15T14:13:49.929Z,76.90
2023-03-15T14:15:57.760Z,76.90
2023-03-15T14:18:04.773Z,76.90
2023-03-15T14:20:16.223Z,77.10
2023-03-15T14:22:20.030Z,77.00
2023-03-15T14:24:31.431Z,77.30
2023-03-15T14:29:51.143Z,77.20
2023-03-15T14:32:01.446Z,77.20
2023-03-15T14:34:10.449Z,77.40
2023-03-15T14:36:24.379Z,77.40
2023-03-15T14:38:32.386Z,77.60
2023-03-15T14:40:37.521Z,77.40
2023-03-15T14:42:41.476Z,77.40
2023-03-15T14:44:45.328Z,77.40
2023-03-15T14:46:49.356Z,77.30
2023-03-15T14:48:53.199Z,77.60
2023-03-15T14:50:58.423Z,77.50
2023-03-15T14:53:02.573Z,77.20
2023-03-15T14:55:06.991Z,77.40
2023-03-15T14:57:11.036Z,77.50
2023-03-15T14:59:14.983Z,77.30
2023-03-15T15:01:22.296Z,77.40
2023-03-15T15:03:31.771Z,77.30
2023-03-15T15:05:36.634Z,77.30
2023-03-15T15:07:41.993Z,77.40
2023-03-15T15:09:48.972Z,77.30
2023-03-15T15:11:53.016Z,77.40
2023-03-15T15:13:57.717Z,77.40
2023-03-15T15:16:01.868Z,77.40
2023-03-15T15:18:05.851Z,77.30
2023-03-15T15:20:12.463Z,77.40
2023-03-15T15:22:16.327Z,77.50
2023-03-15T15:24:22.319Z,77.00
2023-03-15T15:26:29.743Z,76.80
2023-03-15T15:28:37.028Z,76.80
2023-03-15T15:30:41.437Z,77.00
2023-03-15T15:32:45.795Z,77.20
2023-03-15T15:34:49.751Z,77.30
2023-03-15T15:36:53.588Z,77.70
2023-03-15T15:38:57.442Z,50.30
2023-03-15T15:41:02.953Z,61.50
2023-03-15T15:43:06.856Z,70.40
2023-03-15T15:45:12.862Z,73.40
2023-03-15T15:47:16.691Z,72.90
2023-03-15T15:49:20.973Z,73.50
2023-03-15T15:51:28.137Z,74.70
2023-03-15T15:53:32.587Z,74.40
2023-03-15T15:55:39.210Z,74.60
2023-03-15T15:57:45.183Z,74.70
2023-03-15T15:59:49.056Z,75.20
2023-03-15T16:02:00.569Z,75.30
2023-03-15T16:04:05.315Z,75.70
2023-03-15T16:06:16.387Z,75.70
2023-03-15T16:08:22.701Z,75.90
2023-03-15T16:10:30.177Z,75.90
2023-03-15T16:12:34.499Z,76.00
2023-03-15T16:14:39.722Z,76.30
2023-03-15T16:16:43.579Z,76.30
2023-03-15T16:18:47.675Z,76.40
2023-03-15T16:20:52.623Z,76.70
2023-03-15T16:23:20.315Z,76.70
2023-03-15T16:25:27.100Z,77.00
2023-03-15T16:27:31.001Z,77.30
2023-03-15T16:29:39.442Z,77.60
2023-03-15T16:31:46.408Z,77.60
2023-03-15T16:33:50.334Z,77.60
2023-03-15T16:35:54.243Z,77.70
2023-03-15T16:37:58.854Z,77.70
2023-03-15T16:40:04.963Z,77.60
2023-03-15T16:42:11.923Z,78.00
2023-03-15T16:44:17.153Z,77.80
2023-03-15T16:46:22.382Z,77.90
2023-03-15T16:48:26.614Z,77.90
2023-03-15T16:50:30.450Z,78.10
2023-03-15T16:52:34.299Z,78.40
2023-03-15T16:54:41.452Z,78.80
2023-03-15T16:56:46.387Z,78.90
2023-03-15T16:58:50.820Z,78.90
2023-03-15T17:00:54.651Z,79.10
2023-03-15T17:03:01.523Z,79.20
2023-03-15T17:05:06.177Z,79.20
2023-03-15T17:07:10.904Z,79.20
2023-03-15T17:09:16.717Z,79.50
2023-03-15T17:11:20.707Z,79.70
2023-03-15T17:13:27.696Z,79.70
2023-03-15T17:15:31.564Z,79.90
2023-03-15T17:17:36.319Z,79.90
2023-03-15T17:19:43.822Z,80.00
2023-03-15T17:21:47.864Z,80.00
2023-03-15T17:23:52.055Z,80.00
2023-03-15T17:25:55.947Z,79.70
2023-03-15T17:28:00.324Z,79.50
2023-03-15T17:30:06.657Z,79.60
2023-03-15T17:32:12.096Z,80.50
2023-03-15T17:34:16.037Z,79.70
2023-03-15T17:36:22.904Z,80.00
2023-03-15T17:38:38.793Z,79.90
2023-03-15T17:40:44.640Z,79.90
2023-03-15T17:42:48.961Z,79.90
2023-03-15T17:44:52.827Z,79.80
2023-03-15T17:47:09.158Z,80.10
2023-03-15T17:49:26.212Z,80.10
2023-03-15T17:54:28.785Z,80.50
2023-03-15T17:56:33.040Z,80.80
2023-03-15T18:02:26.257Z,81.30
2023-03-15T18:06:31.341Z,81.60
2023-03-15T18:08:48.670Z,82.00
2023-03-15T18:11:42.695Z,82.70
2023-03-15T18:14:01.728Z,83.00
2023-03-15T18:16:33.392Z,83.60
2023-03-15T18:19:03.962Z,83.80
2023-03-15T18:28:03.751Z,84.20
2023-03-15T18:30:22.766Z,85.10
2023-03-15T18:32:27.302Z,85.70
2023-03-15T18:34:34.186Z,85.40
2023-03-15T18:37:01.156Z,85.60
2023-03-15T18:39:58.770Z,86.00
2023-03-15T18:42:06.419Z,86.10
2023-03-15T18:44:10.849Z,87.00
2023-03-15T18:46:32.772Z,85.90
2023-03-15T18:48:40.797Z,86.10
2023-03-15T18:50:58.145Z,86.00
2023-03-15T18:53:13.131Z,86.00
2023-03-15T18:55:24.676Z,70.50
2023-03-15T18:58:40.693Z,84.20
2023-03-15T19:01:20.413Z,84.70
2023-03-15T19:06:33.734Z,85.60
2023-03-15T19:11:31.829Z,85.90
2023-03-15T19:13:37.616Z,86.40
2023-03-15T19:15:46.693Z,86.20
2023-03-15T19:17:52.672Z,86.10
2023-03-15T19:19:58.072Z,85.50
2023-03-15T19:22:02.995Z,84.90
2023-03-15T19:24:09.735Z,85.50
2023-03-15T19:26:14.338Z,85.80
2023-03-15T19:28:18.507Z,85.70
2023-03-15T19:30:22.796Z,85.80
2023-03-15T19:32:28.775Z,85.80
2023-03-15T19:34:32.736Z,85.80
2023-03-15T19:36:38.077Z,85.80
2023-03-15T19:38:42.074Z,85.80
2023-03-15T19:40:45.982Z,85.80
2023-03-15T19:42:50.507Z,85.70
2023-03-15T19:44:54.452Z,85.80
2023-03-15T19:46:58.321Z,85.60
2023-03-15T19:49:02.481Z,85.60
2023-03-15T19:51:07.017Z,85.70
2023-03-15T19:53:12.704Z,85.60
2023-03-15T19:55:17.694Z,85.50
2023-03-15T19:57:21.677Z,85.60
2023-03-15T19:59:25.792Z,85.50
2023-03-15T20:01:29.716Z,85.40
2023-03-15T20:03:34.739Z,85.30
2023-03-15T20:05:38.923Z,85.50
2023-03-15T20:07:43.488Z,85.30
2023-03-15T20:09:48.714Z,85.30
2023-03-15T20:11:52.691Z,85.40
2023-03-15T20:13:56.834Z,85.40
2023-03-15T20:16:01.606Z,85.40
2023-03-15T20:18:08.755Z,85.30
2023-03-15T20:20:14.214Z,85.30
2023-03-15T20:22:18.903Z,85.30
2023-03-15T20:24:23.703Z,85.30
2023-03-15T20:26:31.831Z,85.20
2023-03-15T20:28:36.585Z,85.30
2023-03-15T20:30:43.882Z,85.20
2023-03-15T20:32:49.030Z,85.20
2023-03-15T20:34:57.849Z,85.20
2023-03-15T20:37:02.591Z,85.20
2023-03-15T20:39:07.336Z,85.20
2023-03-15T20:41:14.332Z,85.10
2023-03-15T20:43:20.489Z,85.20
2023-03-15T20:45:25.288Z,85.10
2023-03-15T20:47:29.976Z,85.10
2023-03-15T20:49:34.712Z,85.10
2023-03-15T20:51:39.343Z,85.10
2023-03-15T20:53:44.007Z,85.00
2023-03-15T20:55:48.299Z,85.00
2023-03-15T20:57:53.486Z,84.90
2023-03-15T20:59:59.908Z,85.00
2023-03-15T21:02:04.728Z,85.00
2023-03-15T21:04:09.231Z,84.70
2023-03-15T21:06:13.934Z,85.00
2023-03-15T21:08:18.815Z,78.00
2023-03-15T21:10:23.514Z,73.60
2023-03-15T21:12:28.835Z,78.60
2023-03-15T21:14:33.965Z,77.70
2023-03-15T21:16:40.045Z,76.90
2023-03-15T21:18:48.301Z,77.80
2023-03-15T21:20:59.786Z,78.10
2023-03-15T21:23:04.494Z,77.40
2023-03-15T21:25:10.701Z,39.70
2023-03-15T21:27:15.402Z,42.40
2023-03-15T21:29:19.746Z,52.60
2023-03-15T21:31:23.964Z,57.40
2023-03-15T21:33:31.251Z,66.40
2023-03-15T21:35:35.388Z,67.50
2023-03-15T21:37:40.089Z,68.40
2023-03-15T21:39:43.928Z,67.70
2023-03-15T21:41:47.796Z,67.90
2023-03-15T21:43:51.643Z,68.20
2023-03-15T21:45:55.631Z,68.10
2023-03-15T21:47:59.611Z,68.70
2023-03-15T21:50:05.234Z,68.30
2023-03-15T21:52:09.092Z,66.20
2023-03-15T21:54:13.618Z,68.40
2023-03-15T21:56:17.442Z,68.90
2023-03-15T21:58:21.261Z,69.10
2023-03-15T22:00:26.508Z,69.10
2023-03-15T22:02:30.958Z,69.00
2023-03-15T22:04:35.073Z,69.40
2023-03-15T22:06:40.704Z,69.50
2023-03-15T22:08:44.640Z,69.80
2023-03-15T22:10:48.704Z,70.00
2023-03-15T22:12:53.954Z,70.20
2023-03-15T22:15:05.175Z,70.30
2023-03-15T22:17:10.203Z,70.50
2023-03-15T22:19:14.419Z,70.70
2023-03-15T22:21:18.289Z,70.70
2023-03-15T22:23:23.728Z,70.90
2023-03-15T22:25:27.544Z,71.00
2023-03-15T22:27:31.431Z,71.20
2023-03-15T22:29:35.503Z,71.30
2023-03-15T22:31:39.360Z,71.50
2023-03-15T22:33:43.264Z,71.50
2023-03-15T22:35:47.234Z,71.70
2023-03-15T22:37:56.217Z,71.80
2023-03-15T22:40:01.384Z,71.90
2023-03-15T22:42:05.354Z,72.00
2023-03-15T22:44:09.161Z,72.10
2023-03-15T22:46:13.026Z,72.20
2023-03-15T22:48:16.939Z,72.30
2023-03-15T22:50:21.177Z,72.30
2023-03-15T22:52:25.429Z,72.40
2023-03-15T22:54:29.300Z,72.50
2023-03-15T22:56:34.516Z,72.60
2023-03-15T22:58:38.786Z,72.70
2023-03-15T23:00:42.628Z,72.80
2023-03-15T23:02:46.610Z,72.80
2023-03-15T23:04:50.497Z,72.90
2023-03-15T23:06:54.420Z,73.10
2023-03-15T23:08:58.646Z,73.00
2023-03-15T23:11:02.453Z,73.20
2023-03-15T23:13:07.736Z,73.20
2023-03-15T23:15:14.150Z,73.30
2023-03-15T23:17:18.000Z,73.30
2023-03-15T23:19:22.283Z,73.40
2023-03-15T23:21:26.171Z,73.40
2023-03-15T23:23:30.518Z,73.50
2023-03-15T23:25:35.843Z,73.50
2023-03-15T23:27:39.662Z,73.60
2023-03-15T23:29:54.063Z,73.70
2023-03-15T23:31:58.549Z,73.70
2023-03-15T23:34:02.403Z,73.80
2023-03-15T23:36:07.818Z,73.80
2023-03-15T23:38:13.492Z,73.90
2023-03-15T23:40:17.726Z,74.00
2023-03-15T23:42:25.528Z,74.00
2023-03-15T23:44:29.319Z,74.10
2023-03-15T23:46:36.076Z,74.10
2023-03-15T23:48:39.994Z,74.20
2023-03-15T23:50:44.256Z,74.20
2023-03-15T23:52:48.101Z,74.20
2023-03-15T23:54:53.749Z,74.30
2023-03-15T23:56:57.559Z,74.30
2023-03-15T23:59:01.436Z,74.40
